sensor_id;sensor_type;location;lat;lon;timestamp;P1;durP1;ratioP1;P2;durP2;ratioP2
8048;SDS011;20935;42.660;23.342;2024-03-23T00:54:49;19.03;;;12.10;;
8048;SDS011;20935;42.660;23.342;2024-03-23T00:57:36;25.90;;;12.93;;
8048;SDS011;20935;42.660;23.342;2024-03-23T01:00:22;25.20;;;14.17;;
8048;SDS011;20935;42.660;23.342;2024-03-23T01:03:09;25.27;;;14.00;;
8048;SDS011;20935;42.660;23.342;2024-03-23T01:05:54;23.57;;;14.13;;
8048;SDS011;20935;42.660;23.342;2024-03-23T01:08:45;25.97;;;14.17;;
8048;SDS011;20935;42.660;23.342;2024-03-23T01:11:32;26.70;;;13.37;;
8048;SDS011;20935;42.660;23.342;2024-03-23T01:14:19;18.30;;;12.67;;
8048;SDS011;20935;42.660;23.342;2024-03-23T01:17:04;25.43;;;12.93;;
8048;SDS011;20935;42.660;23.342;2024-03-23T01:19:54;22.00;;;13.50;;
8048;SDS011;20935;42.660;23.342;2024-03-23T01:22:40;21.47;;;13.37;;
8048;SDS011;20935;42.660;23.342;2024-03-23T01:25:27;23.03;;;12.83;;
8048;SDS011;20935;42.660;23.342;2024-03-23T01:28:14;24.87;;;12.63;;
8048;SDS011;20935;42.660;23.342;2024-03-23T01:31:01;25.60;;;14.73;;
8048;SDS011;20935;42.660;23.342;2024-03-23T01:33:47;22.63;;;12.33;;
8048;SDS011;20935;42.660;23.342;2024-03-23T01:36:34;32.63;;;13.87;;
8048;SDS011;20935;42.660;23.342;2024-03-23T01:39:20;25.77;;;13.93;;
8048;SDS011;20935;42.660;23.342;2024-03-23T01:42:07;24.23;;;12.87;;
8048;SDS011;20935;42.660;23.342;2024-03-23T01:44:54;19.77;;;12.60;;
8048;SDS011;20935;42.660;23.342;2024-03-23T01:47:41;25.73;;;13.17;;
8048;SDS011;20935;42.660;23.342;2024-03-23T01:50:33;19.70;;;12.77;;
8048;SDS011;20935;42.660;23.342;2024-03-23T01:53:23;22.27;;;13.17;;
8048;SDS011;20935;42.660;23.342;2024-03-23T01:56:09;24.80;;;13.63;;
8048;SDS011;20935;42.660;23.342;2024-03-23T01:58:56;20.63;;;12.83;;
8048;SDS011;20935;42.660;23.342;2024-03-23T02:01:43;22.87;;;14.33;;
8048;SDS011;20935;42.660;23.342;2024-03-23T02:04:30;26.93;;;15.50;;
8048;SDS011;20935;42.660;23.342;2024-03-23T02:07:15;25.23;;;13.00;;
8048;SDS011;20935;42.660;23.342;2024-03-23T02:10:02;30.33;;;13.43;;
8048;SDS011;20935;42.660;23.342;2024-03-23T02:12:49;26.20;;;13.13;;
8048;SDS011;20935;42.660;23.342;2024-03-23T02:15:35;20.03;;;12.20;;
8048;SDS011;20935;42.660;23.342;2024-03-23T02:18:22;23.80;;;12.60;;
8048;SDS011;20935;42.660;23.342;2024-03-23T02:21:12;22.00;;;13.13;;
8048;SDS011;20935;42.660;23.342;2024-03-23T02:24:02;20.50;;;13.57;;
8048;SDS011;20935;42.660;23.342;2024-03-23T02:26:49;19.20;;;13.43;;
8048;SDS011;20935;42.660;23.342;2024-03-23T02:29:40;21.53;;;13.97;;
8048;SDS011;20935;42.660;23.342;2024-03-23T02:32:27;23.43;;;13.27;;
8048;SDS011;20935;42.660;23.342;2024-03-23T02:35:13;27.00;;;12.93;;
8048;SDS011;20935;42.660;23.342;2024-03-23T02:38:00;27.67;;;15.53;;
8048;SDS011;20935;42.660;23.342;2024-03-23T02:40:47;23.90;;;13.90;;
8048;SDS011;20935;42.660;23.342;2024-03-23T02:43:34;23.53;;;14.83;;
8048;SDS011;20935;42.660;23.342;2024-03-23T02:46:20;26.73;;;13.97;;
8048;SDS011;20935;42.660;23.342;2024-03-23T02:49:07;24.83;;;14.77;;
8048;SDS011;20935;42.660;23.342;2024-03-23T02:51:53;18.77;;;12.93;;
8048;SDS011;20935;42.660;23.342;2024-03-23T02:54:40;26.03;;;13.67;;
8048;SDS011;20935;42.660;23.342;2024-03-23T02:57:29;22.53;;;12.90;;
8048;SDS011;20935;42.660;23.342;2024-03-23T03:00:16;19.63;;;12.80;;
8048;SDS011;20935;42.660;23.342;2024-03-23T03:03:02;19.67;;;13.03;;
8048;SDS011;20935;42.660;23.342;2024-03-23T03:05:54;25.53;;;13.83;;
8048;SDS011;20935;42.660;23.342;2024-03-23T03:08:40;23.83;;;14.03;;
8048;SDS011;20935;42.660;23.342;2024-03-23T03:11:27;22.90;;;15.00;;
8048;SDS011;20935;42.660;23.342;2024-03-23T03:14:14;23.27;;;15.20;;
8048;SDS011;20935;42.660;23.342;2024-03-23T03:17:01;16.67;;;12.77;;
8048;SDS011;20935;42.660;23.342;2024-03-23T03:19:47;27.10;;;13.57;;
8048;SDS011;20935;42.660;23.342;2024-03-23T03:22:33;22.50;;;14.17;;
8048;SDS011;20935;42.660;23.342;2024-03-23T03:25:20;22.77;;;14.03;;
8048;SDS011;20935;42.660;23.342;2024-03-23T03:28:06;22.60;;;13.50;;
8048;SDS011;20935;42.660;23.342;2024-03-23T03:30:54;18.40;;;12.77;;
8048;SDS011;20935;42.660;23.342;2024-03-23T03:33:43;20.23;;;12.30;;
8048;SDS011;20935;42.660;23.342;2024-03-23T03:36:30;20.10;;;13.00;;
8048;SDS011;20935;42.660;23.342;2024-03-23T03:39:16;20.00;;;12.87;;
8048;SDS011;20935;42.660;23.342;2024-03-23T03:42:03;21.33;;;12.37;;
8048;SDS011;20935;42.660;23.342;2024-03-23T03:44:55;27.53;;;14.13;;
8048;SDS011;20935;42.660;23.342;2024-03-23T03:47:43;20.97;;;13.40;;
8048;SDS011;20935;42.660;23.342;2024-03-23T03:50:29;23.30;;;13.97;;
8048;SDS011;20935;42.660;23.342;2024-03-23T03:53:16;28.53;;;15.67;;
8048;SDS011;20935;42.660;23.342;2024-03-23T03:56:01;22.93;;;13.73;;
8048;SDS011;20935;42.660;23.342;2024-03-23T03:58:49;21.93;;;14.40;;
8048;SDS011;20935;42.660;23.342;2024-03-23T04:01:36;19.03;;;13.90;;
8048;SDS011;20935;42.660;23.342;2024-03-23T04:04:23;18.67;;;12.73;;
8048;SDS011;20935;42.660;23.342;2024-03-23T04:07:10;20.40;;;13.50;;
8048;SDS011;20935;42.660;23.342;2024-03-23T04:09:56;23.37;;;14.20;;
8048;SDS011;20935;42.660;23.342;2024-03-23T04:12:43;22.77;;;13.03;;
8048;SDS011;20935;42.660;23.342;2024-03-23T04:15:29;27.27;;;13.53;;
8048;SDS011;20935;42.660;23.342;2024-03-23T04:18:15;18.90;;;12.50;;
8048;SDS011;20935;42.660;23.342;2024-03-23T04:21:04;23.63;;;13.43;;
8048;SDS011;20935;42.660;23.342;2024-03-23T04:23:49;23.87;;;13.03;;
8048;SDS011;20935;42.660;23.342;2024-03-23T04:26:42;21.73;;;13.00;;
8048;SDS011;20935;42.660;23.342;2024-03-23T04:29:28;25.37;;;13.77;;
8048;SDS011;20935;42.660;23.342;2024-03-23T04:32:15;21.63;;;14.23;;
8048;SDS011;20935;42.660;23.342;2024-03-23T04:35:01;20.07;;;13.90;;
8048;SDS011;20935;42.660;23.342;2024-03-23T04:37:49;22.70;;;13.57;;
8048;SDS011;20935;42.660;23.342;2024-03-23T04:40:37;22.47;;;13.27;;
8048;SDS011;20935;42.660;23.342;2024-03-23T04:43:24;30.33;;;13.77;;
8048;SDS011;20935;42.660;23.342;2024-03-23T04:46:11;25.33;;;13.83;;
8048;SDS011;20935;42.660;23.342;2024-03-23T04:48:58;25.00;;;13.93;;
8048;SDS011;20935;42.660;23.342;2024-03-23T04:51:45;22.50;;;14.67;;
8048;SDS011;20935;42.660;23.342;2024-03-23T04:54:33;26.50;;;14.37;;
8048;SDS011;20935;42.660;23.342;2024-03-23T04:57:20;21.50;;;13.73;;
8048;SDS011;20935;42.660;23.342;2024-03-23T05:00:07;23.90;;;13.40;;
8048;SDS011;20935;42.660;23.342;2024-03-23T05:03:02;25.00;;;14.43;;
8048;SDS011;20935;42.660;23.342;2024-03-23T05:05:49;22.23;;;13.93;;
8048;SDS011;20935;42.660;23.342;2024-03-23T05:08:35;28.57;;;14.60;;
8048;SDS011;20935;42.660;23.342;2024-03-23T05:11:26;21.70;;;13.83;;
8048;SDS011;20935;42.660;23.342;2024-03-23T05:14:12;25.30;;;14.43;;
8048;SDS011;20935;42.660;23.342;2024-03-23T05:16:59;22.83;;;13.23;;
8048;SDS011;20935;42.660;23.342;2024-03-23T05:19:45;20.73;;;13.53;;
8048;SDS011;20935;42.660;23.342;2024-03-23T05:22:32;21.93;;;12.43;;
8048;SDS011;20935;42.660;23.342;2024-03-23T05:25:18;17.07;;;13.10;;
8048;SDS011;20935;42.660;23.342;2024-03-23T05:28:06;22.43;;;13.73;;
8048;SDS011;20935;42.660;23.342;2024-03-23T05:30:52;20.40;;;12.77;;
8048;SDS011;20935;42.660;23.342;2024-03-23T05:33:39;21.80;;;12.73;;
8048;SDS011;20935;42.660;23.342;2024-03-23T05:36:25;26.70;;;14.00;;
8048;SDS011;20935;42.660;23.342;2024-03-23T05:39:15;23.87;;;13.43;;
8048;SDS011;20935;42.660;23.342;2024-03-23T05:42:01;20.07;;;14.10;;
8048;SDS011;20935;42.660;23.342;2024-03-23T05:44:52;19.90;;;13.43;;
8048;SDS011;20935;42.660;23.342;2024-03-23T05:47:38;21.33;;;12.00;;
8048;SDS011;20935;42.660;23.342;2024-03-23T05:50:25;20.60;;;12.63;;
8048;SDS011;20935;42.660;23.342;2024-03-23T05:53:11;17.07;;;11.40;;
8048;SDS011;20935;42.660;23.342;2024-03-23T05:56:01;19.87;;;11.00;;
8048;SDS011;20935;42.660;23.342;2024-03-23T05:58:49;20.20;;;11.97;;
8048;SDS011;20935;42.660;23.342;2024-03-23T06:01:37;15.70;;;11.10;;
8048;SDS011;20935;42.660;23.342;2024-03-23T06:04:24;22.13;;;12.23;;
8048;SDS011;20935;42.660;23.342;2024-03-23T06:07:11;19.27;;;11.90;;
8048;SDS011;20935;42.660;23.342;2024-03-23T06:10:00;17.50;;;12.47;;
8048;SDS011;20935;42.660;23.342;2024-03-23T06:12:47;16.57;;;12.57;;
8048;SDS011;20935;42.660;23.342;2024-03-23T06:15:34;19.47;;;13.30;;
8048;SDS011;20935;42.660;23.342;2024-03-23T06:18:24;19.93;;;12.97;;
8048;SDS011;20935;42.660;23.342;2024-03-23T06:21:13;19.10;;;13.33;;
8048;SDS011;20935;42.660;23.342;2024-03-23T06:23:59;21.30;;;13.53;;
8048;SDS011;20935;42.660;23.342;2024-03-23T06:26:48;22.10;;;14.93;;
8048;SDS011;20935;42.660;23.342;2024-03-23T06:29:35;18.77;;;14.17;;
8048;SDS011;20935;42.660;23.342;2024-03-23T06:32:22;22.87;;;15.00;;
8048;SDS011;20935;42.660;23.342;2024-03-23T06:35:15;18.23;;;12.90;;
8048;SDS011;20935;42.660;23.342;2024-03-23T06:38:01;17.97;;;13.33;;
8048;SDS011;20935;42.660;23.342;2024-03-23T06:40:48;20.67;;;13.40;;
8048;SDS011;20935;42.660;23.342;2024-03-23T06:43:36;23.23;;;13.30;;
8048;SDS011;20935;42.660;23.342;2024-03-23T06:46:23;22.27;;;13.70;;
8048;SDS011;20935;42.660;23.342;2024-03-23T06:49:12;17.70;;;12.90;;
8048;SDS011;20935;42.660;23.342;2024-03-23T06:52:03;17.40;;;12.60;;
8048;SDS011;20935;42.660;23.342;2024-03-23T06:54:49;20.53;;;12.97;;
8048;SDS011;20935;42.660;23.342;2024-03-23T06:57:39;17.27;;;11.47;;
8048;SDS011;20935;42.660;23.342;2024-03-23T07:00:25;18.67;;;12.07;;
8048;SDS011;20935;42.660;23.342;2024-03-23T07:03:12;16.93;;;10.20;;
8048;SDS011;20935;42.660;23.342;2024-03-23T07:05:58;16.70;;;10.53;;
8048;SDS011;20935;42.660;23.342;2024-03-23T07:08:49;13.33;;;11.07;;
8048;SDS011;20935;42.660;23.342;2024-03-23T07:11:35;14.93;;;9.57;;
8048;SDS011;20935;42.660;23.342;2024-03-23T07:14:23;16.73;;;10.57;;
8048;SDS011;20935;42.660;23.342;2024-03-23T07:17:09;13.87;;;9.57;;
8048;SDS011;20935;42.660;23.342;2024-03-23T07:19:56;13.23;;;9.67;;
8048;SDS011;20935;42.660;23.342;2024-03-23T07:22:42;16.97;;;9.93;;
8048;SDS011;20935;42.660;23.342;2024-03-23T07:25:30;15.97;;;9.83;;
8048;SDS011;20935;42.660;23.342;2024-03-23T07:28:20;15.77;;;9.20;;
8048;SDS011;20935;42.660;23.342;2024-03-23T07:31:07;12.60;;;9.10;;
8048;SDS011;20935;42.660;23.342;2024-03-23T07:33:54;11.40;;;9.30;;
8048;SDS011;20935;42.660;23.342;2024-03-23T07:36:41;10.97;;;8.53;;
8048;SDS011;20935;42.660;23.342;2024-03-23T07:39:26;14.27;;;9.60;;
8048;SDS011;20935;42.660;23.342;2024-03-23T07:42:15;12.20;;;8.83;;
8048;SDS011;20935;42.660;23.342;2024-03-23T07:45:01;13.77;;;8.57;;
8048;SDS011;20935;42.660;23.342;2024-03-23T07:47:48;16.87;;;8.67;;
8048;SDS011;20935;42.660;23.342;2024-03-23T07:50:37;12.57;;;9.40;;
8048;SDS011;20935;42.660;23.342;2024-03-23T07:53:24;15.97;;;9.47;;
8048;SDS011;20935;42.660;23.342;2024-03-23T07:56:10;13.07;;;9.27;;
8048;SDS011;20935;42.660;23.342;2024-03-23T07:59:04;16.70;;;9.37;;
8048;SDS011;20935;42.660;23.342;2024-03-23T08:01:50;19.63;;;9.87;;
8048;SDS011;20935;42.660;23.342;2024-03-23T08:04:37;14.97;;;9.23;;
8048;SDS011;20935;42.660;23.342;2024-03-23T08:07:23;18.00;;;10.13;;
8048;SDS011;20935;42.660;23.342;2024-03-23T08:10:11;18.40;;;10.30;;
8048;SDS011;20935;42.660;23.342;2024-03-23T08:12:58;16.27;;;10.20;;
8048;SDS011;20935;42.660;23.342;2024-03-23T08:15:46;19.00;;;10.90;;
8048;SDS011;20935;42.660;23.342;2024-03-23T08:18:32;17.03;;;11.43;;
8048;SDS011;20935;42.660;23.342;2024-03-23T08:21:19;17.20;;;12.90;;
8048;SDS011;20935;42.660;23.342;2024-03-23T08:24:06;22.07;;;11.57;;
8048;SDS011;20935;42.660;23.342;2024-03-23T08:26:54;16.37;;;11.70;;
8048;SDS011;20935;42.660;23.342;2024-03-23T08:29:40;16.10;;;11.77;;
8048;SDS011;20935;42.660;23.342;2024-03-23T08:32:28;16.20;;;10.40;;
8048;SDS011;20935;42.660;23.342;2024-03-23T08:35:15;24.03;;;12.50;;
8048;SDS011;20935;42.660;23.342;2024-03-23T08:38:00;17.87;;;12.23;;
8048;SDS011;20935;42.660;23.342;2024-03-23T08:40:47;20.13;;;12.43;;
8048;SDS011;20935;42.660;23.342;2024-03-23T08:43:34;19.53;;;11.03;;
8048;SDS011;20935;42.660;23.342;2024-03-23T08:46:21;15.93;;;11.33;;
8048;SDS011;20935;42.660;23.342;2024-03-23T08:49:09;18.77;;;11.57;;
8048;SDS011;20935;42.660;23.342;2024-03-23T08:51:57;16.90;;;11.57;;
8048;SDS011;20935;42.660;23.342;2024-03-23T08:54:43;20.37;;;11.23;;
8048;SDS011;20935;42.660;23.342;2024-03-23T08:57:29;14.53;;;9.77;;
8048;SDS011;20935;42.660;23.342;2024-03-23T09:00:16;15.17;;;10.63;;
8048;SDS011;20935;42.660;23.342;2024-03-23T09:03:03;18.53;;;10.43;;
8048;SDS011;20935;42.660;23.342;2024-03-23T09:05:51;16.97;;;11.10;;
8048;SDS011;20935;42.660;23.342;2024-03-23T09:08:37;16.17;;;10.63;;
8048;SDS011;20935;42.660;23.342;2024-03-23T09:11:26;15.67;;;11.20;;
8048;SDS011;20935;42.660;23.342;2024-03-23T09:14:11;17.57;;;10.77;;
8048;SDS011;20935;42.660;23.342;2024-03-23T09:16:58;14.10;;;10.10;;
8048;SDS011;20935;42.660;23.342;2024-03-23T09:19:47;15.50;;;11.03;;
8048;SDS011;20935;42.660;23.342;2024-03-23T09:22:35;13.63;;;10.13;;
8048;SDS011;20935;42.660;23.342;2024-03-23T09:25:21;17.23;;;10.57;;
8048;SDS011;20935;42.660;23.342;2024-03-23T09:28:07;20.67;;;9.57;;
8048;SDS011;20935;42.660;23.342;2024-03-23T09:31:01;13.77;;;9.60;;
8048;SDS011;20935;42.660;23.342;2024-03-23T09:33:48;15.50;;;10.63;;
8048;SDS011;20935;42.660;23.342;2024-03-23T09:36:35;17.47;;;10.40;;
8048;SDS011;20935;42.660;23.342;2024-03-23T09:39:22;15.67;;;10.77;;
8048;SDS011;20935;42.660;23.342;2024-03-23T09:42:09;14.57;;;10.67;;
8048;SDS011;20935;42.660;23.342;2024-03-23T09:44:56;13.53;;;9.43;;
8048;SDS011;20935;42.660;23.342;2024-03-23T09:47:43;14.47;;;10.30;;
8048;SDS011;20935;42.660;23.342;2024-03-23T09:50:30;13.47;;;10.10;;
8048;SDS011;20935;42.660;23.342;2024-03-23T09:53:17;17.07;;;10.57;;
8048;SDS011;20935;42.660;23.342;2024-03-23T09:56:09;14.77;;;10.73;;
8048;SDS011;20935;42.660;23.342;2024-03-23T09:59:00;13.20;;;10.03;;
8048;SDS011;20935;42.660;23.342;2024-03-23T10:01:45;13.37;;;9.23;;
8048;SDS011;20935;42.660;23.342;2024-03-23T10:04:37;11.87;;;9.60;;
8048;SDS011;20935;42.660;23.342;2024-03-23T10:07:22;14.03;;;9.23;;
8048;SDS011;20935;42.660;23.342;2024-03-23T10:10:10;13.60;;;10.03;;
8048;SDS011;20935;42.660;23.342;2024-03-23T10:12:56;17.27;;;10.07;;
8048;SDS011;20935;42.660;23.342;2024-03-23T10:15:41;14.37;;;10.07;;
8048;SDS011;20935;42.660;23.342;2024-03-23T10:18:25;13.13;;;9.10;;
8048;SDS011;20935;42.660;23.342;2024-03-23T10:21:13;12.73;;;9.03;;
8048;SDS011;20935;42.660;23.342;2024-03-23T10:23:58;12.07;;;9.03;;
8048;SDS011;20935;42.660;23.342;2024-03-23T10:26:55;14.80;;;9.17;;
8048;SDS011;20935;42.660;23.342;2024-03-23T10:29:41;14.60;;;8.97;;
8048;SDS011;20935;42.660;23.342;2024-03-23T10:32:26;12.10;;;9.77;;
8048;SDS011;20935;42.660;23.342;2024-03-23T10:35:14;22.53;;;11.37;;
8048;SDS011;20935;42.660;23.342;2024-03-23T10:37:59;14.07;;;9.07;;
8048;SDS011;20935;42.660;23.342;2024-03-23T10:40:43;11.57;;;9.10;;
8048;SDS011;20935;42.660;23.342;2024-03-23T10:43:29;11.97;;;8.87;;
8048;SDS011;20935;42.660;23.342;2024-03-23T10:46:16;12.33;;;9.00;;
8048;SDS011;20935;42.660;23.342;2024-03-23T10:49:01;12.40;;;8.77;;
8048;SDS011;20935;42.660;23.342;2024-03-23T10:51:45;13.10;;;8.10;;
8048;SDS011;20935;42.660;23.342;2024-03-23T10:54:30;10.23;;;7.03;;
8048;SDS011;20935;42.660;23.342;2024-03-23T10:57:16;13.10;;;7.80;;
8048;SDS011;20935;42.660;23.342;2024-03-23T11:00:02;12.30;;;6.93;;
8048;SDS011;20935;42.660;23.342;2024-03-23T11:02:48;11.33;;;7.80;;
8048;SDS011;20935;42.660;23.342;2024-03-23T11:05:33;8.63;;;6.67;;
8048;SDS011;20935;42.660;23.342;2024-03-23T11:08:29;12.37;;;7.27;;
8048;SDS011;20935;42.660;23.342;2024-03-23T11:11:17;9.93;;;6.80;;
8048;SDS011;20935;42.660;23.342;2024-03-23T11:14:05;11.77;;;7.23;;
8048;SDS011;20935;42.660;23.342;2024-03-23T11:17:08;9.77;;;7.03;;
8048;SDS011;20935;42.660;23.342;2024-03-23T11:19:54;8.87;;;6.13;;
8048;SDS011;20935;42.660;23.342;2024-03-23T11:22:44;10.57;;;7.43;;
8048;SDS011;20935;42.660;23.342;2024-03-23T11:25:30;11.27;;;7.07;;
8048;SDS011;20935;42.660;23.342;2024-03-23T11:28:14;8.30;;;7.13;;
8048;SDS011;20935;42.660;23.342;2024-03-23T11:31:00;8.83;;;7.43;;
8048;SDS011;20935;42.660;23.342;2024-03-23T11:33:44;10.00;;;8.07;;
8048;SDS011;20935;42.660;23.342;2024-03-23T11:36:30;12.00;;;7.53;;
8048;SDS011;20935;42.660;23.342;2024-03-23T11:39:14;9.67;;;7.67;;
8048;SDS011;20935;42.660;23.342;2024-03-23T11:42:00;10.40;;;7.90;;
8048;SDS011;20935;42.660;23.342;2024-03-23T11:44:44;14.23;;;7.97;;
8048;SDS011;20935;42.660;23.342;2024-03-23T11:47:31;9.07;;;7.47;;
8048;SDS011;20935;42.660;23.342;2024-03-23T11:50:19;12.93;;;7.60;;
8048;SDS011;20935;42.660;23.342;2024-03-23T11:53:11;10.13;;;7.03;;
8048;SDS011;20935;42.660;23.342;2024-03-23T11:55:56;9.20;;;6.70;;
8048;SDS011;20935;42.660;23.342;2024-03-23T11:58:42;10.23;;;7.27;;
8048;SDS011;20935;42.660;23.342;2024-03-23T12:01:27;9.47;;;7.10;;
8048;SDS011;20935;42.660;23.342;2024-03-23T12:04:12;12.80;;;6.90;;
8048;SDS011;20935;42.660;23.342;2024-03-23T12:10:04;11.50;;;6.77;;
8048;SDS011;20935;42.660;23.342;2024-03-23T12:12:59;9.60;;;6.77;;
8048;SDS011;20935;42.660;23.342;2024-03-23T12:15:43;8.67;;;6.47;;
8048;SDS011;20935;42.660;23.342;2024-03-23T12:18:28;6.37;;;5.77;;
8048;SDS011;20935;42.660;23.342;2024-03-23T12:21:15;11.13;;;6.63;;
8048;SDS011;20935;42.660;23.342;2024-03-23T12:24:01;8.30;;;5.93;;
8048;SDS011;20935;42.660;23.342;2024-03-23T12:26:46;14.23;;;6.80;;
8048;SDS011;20935;42.660;23.342;2024-03-23T12:29:34;13.63;;;7.30;;
8048;SDS011;20935;42.660;23.342;2024-03-23T12:32:18;8.70;;;6.40;;
8048;SDS011;20935;42.660;23.342;2024-03-23T12:35:04;10.47;;;6.60;;
8048;SDS011;20935;42.660;23.342;2024-03-23T12:37:48;10.07;;;6.13;;
8048;SDS011;20935;42.660;23.342;2024-03-23T12:40:34;8.30;;;6.37;;
8048;SDS011;20935;42.660;23.342;2024-03-23T12:43:19;8.97;;;7.33;;
8048;SDS011;20935;42.660;23.342;2024-03-23T12:46:04;6.27;;;5.67;;
8048;SDS011;20935;42.660;23.342;2024-03-23T12:48:52;8.60;;;5.67;;
8048;SDS011;20935;42.660;23.342;2024-03-23T12:51:37;6.50;;;4.90;;
8048;SDS011;20935;42.660;23.342;2024-03-23T12:54:22;5.73;;;4.53;;
8048;SDS011;20935;42.660;23.342;2024-03-23T12:57:07;6.03;;;4.90;;
8048;SDS011;20935;42.660;23.342;2024-03-23T12:59:52;6.80;;;5.23;;
8048;SDS011;20935;42.660;23.342;2024-03-23T13:02:37;6.83;;;4.30;;
8048;SDS011;20935;42.660;23.342;2024-03-23T13:05:22;7.40;;;4.23;;
8048;SDS011;20935;42.660;23.342;2024-03-23T13:08:09;4.20;;;3.30;;
8048;SDS011;20935;42.660;23.342;2024-03-23T13:10:55;3.43;;;2.90;;
8048;SDS011;20935;42.660;23.342;2024-03-23T13:13:42;3.33;;;2.33;;
8048;SDS011;20935;42.660;23.342;2024-03-23T13:16:29;3.83;;;2.10;;
8048;SDS011;20935;42.660;23.342;2024-03-23T13:19:16;1.97;;;1.80;;
8048;SDS011;20935;42.660;23.342;2024-03-23T13:22:02;2.63;;;2.23;;
8048;SDS011;20935;42.660;23.342;2024-03-23T13:24:49;1.50;;;1.40;;
8048;SDS011;20935;42.660;23.342;2024-03-23T13:27:36;1.80;;;1.70;;
8048;SDS011;20935;42.660;23.342;2024-03-23T13:30:22;4.10;;;1.73;;
8048;SDS011;20935;42.660;23.342;2024-03-23T13:33:10;1.63;;;1.53;;
8048;SDS011;20935;42.660;23.342;2024-03-23T13:35:56;2.07;;;1.40;;
8048;SDS011;20935;42.660;23.342;2024-03-23T13:38:43;1.97;;;1.57;;
8048;SDS011;20935;42.660;23.342;2024-03-23T13:41:28;1.60;;;1.50;;
8048;SDS011;20935;42.660;23.342;2024-03-23T13:44:15;1.70;;;1.60;;
8048;SDS011;20935;42.660;23.342;2024-03-23T13:47:01;1.83;;;1.50;;
8048;SDS011;20935;42.660;23.342;2024-03-23T13:49:50;2.43;;;1.80;;
8048;SDS011;20935;42.660;23.342;2024-03-23T13:52:36;2.20;;;2.00;;
8048;SDS011;20935;42.660;23.342;2024-03-23T13:55:23;1.97;;;1.87;;
8048;SDS011;20935;42.660;23.342;2024-03-23T13:58:09;5.43;;;1.90;;
8048;SDS011;20935;42.660;23.342;2024-03-23T14:00:57;2.10;;;1.90;;
8048;SDS011;20935;42.660;23.342;2024-03-23T14:03:43;2.57;;;2.03;;
8048;SDS011;20935;42.660;23.342;2024-03-23T14:06:32;3.07;;;2.00;;
8048;SDS011;20935;42.660;23.342;2024-03-23T14:09:17;2.43;;;2.23;;
8048;SDS011;20935;42.660;23.342;2024-03-23T14:12:06;2.10;;;1.90;;
8048;SDS011;20935;42.660;23.342;2024-03-23T14:14:54;2.23;;;1.90;;
8048;SDS011;20935;42.660;23.342;2024-03-23T14:17:41;2.03;;;1.83;;
8048;SDS011;20935;42.660;23.342;2024-03-23T14:20:27;2.53;;;2.10;;
8048;SDS011;20935;42.660;23.342;2024-03-23T14:23:15;2.33;;;1.80;;
8048;SDS011;20935;42.660;23.342;2024-03-23T14:26:01;3.27;;;1.77;;
8048;SDS011;20935;42.660;23.342;2024-03-23T14:28:48;3.00;;;1.73;;
8048;SDS011;20935;42.660;23.342;2024-03-23T14:31:34;3.93;;;1.97;;
8048;SDS011;20935;42.660;23.342;2024-03-23T14:34:21;1.77;;;1.67;;
8048;SDS011;20935;42.660;23.342;2024-03-23T14:37:07;1.97;;;1.60;;
8048;SDS011;20935;42.660;23.342;2024-03-23T14:39:56;2.00;;;1.80;;
8048;SDS011;20935;42.660;23.342;2024-03-23T14:42:42;2.70;;;1.70;;
8048;SDS011;20935;42.660;23.342;2024-03-23T14:45:29;2.30;;;2.10;;
8048;SDS011;20935;42.660;23.342;2024-03-23T14:48:14;1.50;;;1.40;;
8048;SDS011;20935;42.660;23.342;2024-03-23T14:51:01;5.33;;;2.33;;
8048;SDS011;20935;42.660;23.342;2024-03-23T14:53:50;2.10;;;2.00;;
8048;SDS011;20935;42.660;23.342;2024-03-23T14:56:38;3.27;;;1.87;;
8048;SDS011;20935;42.660;23.342;2024-03-23T14:59:24;2.10;;;1.90;;
8048;SDS011;20935;42.660;23.342;2024-03-23T15:02:11;3.13;;;1.80;;
8048;SDS011;20935;42.660;23.342;2024-03-23T15:04:58;1.50;;;1.40;;
8048;SDS011;20935;42.660;23.342;2024-03-23T15:07:45;2.13;;;1.80;;
8048;SDS011;20935;42.660;23.342;2024-03-23T15:10:32;1.70;;;1.60;;
8048;SDS011;20935;42.660;23.342;2024-03-23T15:13:20;1.90;;;1.80;;
8048;SDS011;20935;42.660;23.342;2024-03-23T15:16:08;6.77;;;1.83;;
8048;SDS011;20935;42.660;23.342;2024-03-23T15:18:55;1.90;;;1.50;;
8048;SDS011;20935;42.660;23.342;2024-03-23T15:21:41;1.60;;;1.50;;
8048;SDS011;20935;42.660;23.342;2024-03-23T15:24:28;2.77;;;1.77;;
8048;SDS011;20935;42.660;23.342;2024-03-23T15:27:14;7.37;;;2.27;;
8048;SDS011;20935;42.660;23.342;2024-03-23T15:30:02;3.00;;;2.27;;
8048;SDS011;20935;42.660;23.342;2024-03-23T15:32:48;2.10;;;1.80;;
8048;SDS011;20935;42.660;23.342;2024-03-23T15:35:35;3.30;;;2.00;;
8048;SDS011;20935;42.660;23.342;2024-03-23T15:38:21;2.27;;;2.07;;
8048;SDS011;20935;42.660;23.342;2024-03-23T15:41:08;2.30;;;2.10;;
8048;SDS011;20935;42.660;23.342;2024-03-23T15:43:53;3.20;;;2.10;;
8048;SDS011;20935;42.660;23.342;2024-03-23T15:46:42;2.00;;;1.80;;
8048;SDS011;20935;42.660;23.342;2024-03-23T15:49:28;4.97;;;2.60;;
8048;SDS011;20935;42.660;23.342;2024-03-23T15:52:15;2.80;;;2.60;;
8048;SDS011;20935;42.660;23.342;2024-03-23T15:55:00;5.20;;;2.60;;
8048;SDS011;20935;42.660;23.342;2024-03-23T15:57:50;2.17;;;1.97;;
8048;SDS011;20935;42.660;23.342;2024-03-23T16:00:37;5.07;;;2.07;;
8048;SDS011;20935;42.660;23.342;2024-03-23T16:03:25;2.97;;;2.13;;
8048;SDS011;20935;42.660;23.342;2024-03-23T16:06:13;2.80;;;2.20;;
8048;SDS011;20935;42.660;23.342;2024-03-23T16:08:59;3.13;;;2.17;;
8048;SDS011;20935;42.660;23.342;2024-03-23T16:11:46;4.70;;;2.57;;
8048;SDS011;20935;42.660;23.342;2024-03-23T16:14:33;2.67;;;2.43;;
8048;SDS011;20935;42.660;23.342;2024-03-23T16:17:18;4.60;;;3.20;;
8048;SDS011;20935;42.660;23.342;2024-03-23T16:20:07;6.40;;;3.60;;
8048;SDS011;20935;42.660;23.342;2024-03-23T16:22:54;4.40;;;3.20;;
8048;SDS011;20935;42.660;23.342;2024-03-23T16:25:45;7.60;;;4.20;;
8048;SDS011;20935;42.660;23.342;2024-03-23T16:28:35;8.10;;;4.27;;
8048;SDS011;20935;42.660;23.342;2024-03-23T16:31:22;6.03;;;3.33;;
8048;SDS011;20935;42.660;23.342;2024-03-23T16:34:07;5.43;;;3.60;;
8048;SDS011;20935;42.660;23.342;2024-03-23T16:36:56;7.80;;;3.63;;
8048;SDS011;20935;42.660;23.342;2024-03-23T16:39:41;5.47;;;3.87;;
8048;SDS011;20935;42.660;23.342;2024-03-23T16:42:29;5.63;;;3.60;;
8048;SDS011;20935;42.660;23.342;2024-03-23T16:45:16;4.07;;;3.03;;
8048;SDS011;20935;42.660;23.342;2024-03-23T16:48:02;7.30;;;3.23;;
8048;SDS011;20935;42.660;23.342;2024-03-23T16:50:50;5.10;;;3.57;;
8048;SDS011;20935;42.660;23.342;2024-03-23T16:53:37;3.90;;;3.50;;
8048;SDS011;20935;42.660;23.342;2024-03-23T16:56:25;4.63;;;3.50;;
8048;SDS011;20935;42.660;23.342;2024-03-23T16:59:11;4.90;;;4.20;;
8048;SDS011;20935;42.660;23.342;2024-03-23T17:01:58;5.27;;;3.77;;
8048;SDS011;20935;42.660;23.342;2024-03-23T17:04:44;5.13;;;3.90;;
8048;SDS011;20935;42.660;23.342;2024-03-23T17:07:31;4.77;;;3.87;;
8048;SDS011;20935;42.660;23.342;2024-03-23T17:10:18;4.00;;;3.07;;
8048;SDS011;20935;42.660;23.342;2024-03-23T17:13:05;5.60;;;3.50;;
8048;SDS011;20935;42.660;23.342;2024-03-23T17:15:50;6.30;;;4.07;;
8048;SDS011;20935;42.660;23.342;2024-03-23T17:18:37;5.33;;;3.90;;
8048;SDS011;20935;42.660;23.342;2024-03-23T17:21:23;6.50;;;4.17;;
8048;SDS011;20935;42.660;23.342;2024-03-23T17:24:10;4.87;;;4.37;;
8048;SDS011;20935;42.660;23.342;2024-03-23T17:26:57;4.63;;;4.10;;